Time;durP1;ratioP1;P1;durP2;ratioP2;P2;SDS_P1;SDS_P2;PMS_P1;PMS_P2;Temp;Humidity;BMP_temperature;BMP_pressure;BME280_temperature;BME280_humidity;BME280_pressure;Samples;Min_cycle;Max_cycle;Signal;HPM_P1;HPM_P2
2021/10/09 00:01:44;;;;;;;;;;;;;;;;;;5076074;28;20041;-79
2021/10/09 00:04:09;;;;;;;;;;;;;;;;;;5075675;28;19963;-80
2021/10/09 00:06:35;;;;;;;;;;;;;;;;;;5076244;28;19924;-79
2021/10/09 00:09:01;;;;;;;;;;;;;;;;;;5075933;28;20455;-80
2021/10/09 00:11:38;;;;;;;;;;;;;;;;;;5075872;28;19916;-79
2021/10/09 00:14:13;;;;;;;;;;;;;;;;;;5075462;28;19964;-80
2021/10/09 00:16:40;;;;;;;;;;;;;;;;;;5075737;28;19939;-80
2021/10/09 00:19:05;;;;;;;;;;;;;;;;;;5075682;28;19916;-80
2021/10/09 00:21:31;;;;;;;;;;;;;;;;;;5075738;28;20372;-79
2021/10/09 00:23:58;;;;;;;;;;;;;;;;;;5074847;28;19951;-81
2021/10/09 00:26:24;;;;;;;;;;;;;;;;;;5075462;28;19923;-80
2021/10/09 00:28:50;;;;;;;;;;;;;;;;;;5075521;28;20350;-80
2021/10/09 00:31:15;;;;;;;;;;;;;;;;;;5075531;28;20018;-80
2021/10/09 00:33:41;;;;;;;;;;;;;;;;;;5075435;28;20342;-80
2021/10/09 00:36:06;;;;;;;;;;;;;;;;;;5074933;28;19919;-80
2021/10/09 00:38:32;;;;;;;;;;;;;;;;;;5075239;28;19962;-80
2021/10/09 00:40:57;;;;;;;;;;;;;;;;;;5075376;28;19924;-80
2021/10/09 00:43:22;;;;;;;;;;;;;;;;;;5074824;28;19959;-80
2021/10/09 00:45:52;;;;;;;;;;;;;;;;;;5075358;28;19970;-79
2021/10/09 00:48:17;;;;;;;;;;;;;;;;;;5075111;28;20023;-79
2021/10/09 00:50:43;;;;;;;;;;;;;;;;;;5075205;28;19951;-80
2021/10/09 00:53:09;;;;;;;;;;;;;;;;;;5075127;28;19917;-80
2021/10/09 00:55:34;;;;;;;;;;;;;;;;;;5074669;28;19970;-80
2021/10/09 00:58:01;;;;;;;;;;;;;;;;;;5057119;28;19928;-79
2021/10/09 01:00:27;;;;;;;;;;;;;;;;;;5074723;28;19978;-81
2021/10/09 01:02:52;;;;;;;;;;;;;;;;;;5074614;28;20001;-79
2021/10/09 01:05:19;;;;;;;;;;;;;;;;;;5074838;28;19924;-79
2021/10/09 01:07:45;;;;;;;;;;;;;;;;;;5074803;28;19916;-79
2021/10/09 01:10:10;;;;;;;;;;;;;;;;;;5074656;28;19916;-79
2021/10/09 01:12:35;;;;;;;;;;;;;;;;;;5074711;28;19970;-79
2021/10/09 01:15:19;;;;;;;;;;;;;;;;;;5074507;28;19942;-80
2021/10/09 01:17:45;;;;;;;;;;;;;;;;;;5074799;28;19916;-79
2021/10/09 01:20:13;;;;;;;;;;;;;;;;;;5078670;28;19923;-80
2021/10/09 01:22:39;;;;;;;;;;;;;;;;;;5080786;28;19962;-79
2021/10/09 01:25:05;;;;;;;;;;;;;;;;;;5078349;28;19917;-79
2021/10/09 01:27:31;;;;;;;;;;;;;;;;;;5057482;28;20368;-79
2021/10/09 01:29:57;;;;;;;;;;;;;;;;;;5075139;28;19920;-79
2021/10/09 01:32:22;;;;;;;;;;;;;;;;;;5074559;28;19917;-79
2021/10/09 01:34:48;;;;;;;;;;;;;;;;;;5074243;28;19924;-79
2021/10/09 01:37:13;;;;;;;;;;;;;;;;;;5073872;28;19916;-80
2021/10/09 01:39:43;;;;;;;;;;;;;;;;;;5074418;28;19960;-79
2021/10/09 01:42:08;;;;;;;;;;;;;;;;;;5074145;28;19917;-79
2021/10/09 01:44:34;;;;;;;;;;;;;;;;;;5073840;28;19923;-79
2021/10/09 01:46:59;;;;;;;;;;;;;;;;;;5056495;28;20003;-79
2021/10/09 01:49:25;;;;;;;;;;;;;;;;;;5074036;28;19920;-80
2021/10/09 01:51:50;;;;;;;;;;;;;;;;;;5074014;28;19962;-79
2021/10/09 01:54:16;;;;;;;;;;;;;;;;;;5073712;28;20011;-79
2021/10/09 01:56:41;;;;;;;;;;;;;;;;;;5073718;28;20277;-78
2021/10/09 01:59:07;;;;;;;;;;;;;;;;;;5073963;28;19916;-80
2021/10/09 02:01:32;;;;;;;;;;;;;;;;;;5073955;28;19917;-79
2021/10/09 02:04:00;;;;;;;;;;;;;;;;;;5073581;28;19955;-79
2021/10/09 02:06:25;;;;;;;;;;;;;;;;;;5073781;28;19962;-79
2021/10/09 02:08:50;;;;;;;;;;;;;;;;;;5073822;28;19960;-79
2021/10/09 02:11:19;;;;;;;;;;;;;;;;;;5073901;28;19917;-79
2021/10/09 02:13:51;;;;;;;;;;;;;;;;;;5073817;28;19916;-80
2021/10/09 02:17:10;;;;;;;;;;;;;;;;;;5073330;28;19917;-79
2021/10/09 02:27:18;;;;;;;;;;;;;;;;;;5073306;28;20284;-80
2021/10/09 02:29:44;;;;;;;;;;;;;;;;;;5073464;28;19916;-80
2021/10/09 02:32:09;;;;;;;;;;;;;;;;;;5073547;28;20010;-80
2021/10/09 02:34:35;;;;;;;;;;;;;;;;;;5073101;28;20315;-80
2021/10/09 02:37:00;;;;;;;;;;;;;;;;;;5072967;28;19924;-81
2021/10/09 02:39:26;;;;;;;;;;;;;;;;;;5073373;28;19917;-80
2021/10/09 02:41:52;;;;;;;;;;;;;;;;;;5073549;28;20331;-80
2021/10/09 02:44:18;;;;;;;;;;;;;;;;;;5069959;28;19943;-80
2021/10/09 02:46:43;;;;;;;;;;;;;;;;;;5073451;28;19970;-80
2021/10/09 02:49:09;;;;;;;;;;;;;;;;;;5077040;28;19927;-80
2021/10/09 02:51:34;;;;;;;;;;;;;;;;;;5077339;28;19920;-80
2021/10/09 02:54:00;;;;;;;;;;;;;;;;;;5077462;28;19923;-80
2021/10/09 02:56:25;;;;;;;;;;;;;;;;;;5058591;28;20421;-80
2021/10/09 02:58:51;;;;;;;;;;;;;;;;;;5059346;28;19944;-80
2021/10/09 03:01:16;;;;;;;;;;;;;;;;;;5077258;28;20007;-80
2021/10/09 03:03:41;;;;;;;;;;;;;;;;;;5076906;28;20261;-80
2021/10/09 03:06:07;;;;;;;;;;;;;;;;;;5077394;28;19952;-80
2021/10/09 03:08:32;;;;;;;;;;;;;;;;;;5077404;28;19958;-80
2021/10/09 03:10:58;;;;;;;;;;;;;;;;;;5077765;28;19959;-80
2021/10/09 03:13:23;;;;;;;;;;;;;;;;;;5077391;28;20011;-80
2021/10/09 03:15:49;;;;;;;;;;;;;;;;;;5076384;28;20017;-80
2021/10/09 03:18:14;;;;;;;;;;;;;;;;;;5076828;28;20398;-79
2021/10/09 03:20:40;;;;;;;;;;;;;;;;;;5076844;28;19916;-80
2021/10/09 03:23:05;;;;;;;;;;;;;;;;;;5076817;28;20015;-80
2021/10/09 03:25:30;;;;;;;;;;;;;;;;;;5076531;28;19978;-81
2021/10/09 03:27:56;;;;;;;;;;;;;;;;;;5076778;28;19916;-81
2021/10/09 03:30:21;;;;;;;;;;;;;;;;;;5076614;28;20358;-80
2021/10/09 03:32:47;;;;;;;;;;;;;;;;;;5076871;28;20359;-79
2021/10/09 03:35:12;;;;;;;;;;;;;;;;;;5076276;28;19916;-81
2021/10/09 03:37:39;;;;;;;;;;;;;;;;;;5076434;28;20315;-80
2021/10/09 03:40:07;;;;;;;;;;;;;;;;;;5076507;28;19924;-81
2021/10/09 03:42:48;;;;;;;;;;;;;;;;;;5076488;28;19917;-81
2021/10/09 03:52:22;;;;;;;;;;;;;;;;;;5077114;28;19924;-80
2021/10/09 03:53:07;;;;;;;;;;;;;;;;;;5076150;28;19913;-80
2021/10/09 03:55:33;;;;;;;;;;;;;;;;;;5075814;28;19916;-80
2021/10/09 03:57:58;;;;;;;;;;;;;;;;;;5076006;28;20288;-80
2021/10/09 04:00:24;;;;;;;;;;;;;;;;;;5075029;28;20489;-80
2021/10/09 04:02:49;;;;;;;;;;;;;;;;;;5076121;28;19942;-79
2021/10/09 04:05:15;;;;;;;;;;;;;;;;;;5075756;28;19959;-80
2021/10/09 04:07:40;;;;;;;;;;;;;;;;;;5076061;28;20368;-80
2021/10/09 04:10:07;;;;;;;;;;;;;;;;;;5075975;28;19924;-81
2021/10/09 04:12:32;;;;;;;;;;;;;;;;;;5075826;28;20372;-81
2021/10/09 04:14:58;;;;;;;;;;;;;;;;;;5075747;28;19999;-81
2021/10/09 04:17:23;;;;;;;;;;;;;;;;;;5075786;28;20438;-80
2021/10/09 04:19:49;;;;;;;;;;;;;;;;;;5075884;28;20364;-79
2021/10/09 04:22:14;;;;;;;;;;;;;;;;;;5075645;28;19921;-80
2021/10/09 04:24:40;;;;;;;;;;;;;;;;;;5075375;28;19916;-81
2021/10/09 04:27:05;;;;;;;;;;;;;;;;;;5075676;28;20272;-80
2021/10/09 04:29:31;;;;;;;;;;;;;;;;;;5075526;28;20016;-81
2021/10/09 04:31:56;;;;;;;;;;;;;;;;;;5075630;28;19912;-82
2021/10/09 04:34:22;;;;;;;;;;;;;;;;;;5075441;28;19923;-81
2021/10/09 04:36:47;;;;;;;;;;;;;;;;;;5074993;28;19917;-81
2021/10/09 04:39:13;;;;;;;;;;;;;;;;;;5075330;28;19916;-81
2021/10/09 04:41:38;;;;;;;;;;;;;;;;;;5075379;28;19917;-80
2021/10/09 04:44:06;;;;;;;;;;;;;;;;;;5075054;28;20364;-80
2021/10/09 04:46:32;;;;;;;;;;;;;;;;;;5057681;28;19923;-81
2021/10/09 04:48:58;;;;;;;;;;;;;;;;;;5075886;28;20277;-79
2021/10/09 04:51:23;;;;;;;;;;;;;;;;;;5075520;28;19913;-82
2021/10/09 04:53:49;;;;;;;;;;;;;;;;;;5075178;28;20024;-81
2021/10/09 04:56:14;;;;;;;;;;;;;;;;;;5074547;28;19920;-80
2021/10/09 04:58:40;;;;;;;;;;;;;;;;;;5074961;28;19921;-83
2021/10/09 05:01:05;;;;;;;;;;;;;;;;;;5075140;28;19916;-80
2021/10/09 05:03:30;;;;;;;;;;;;;;;;;;5074789;28;20026;-81
2021/10/09 05:05:56;;;;;;;;;;;;;;;;;;5074505;28;19923;-81
2021/10/09 05:08:22;;;;;;;;;;;;;;;;;;5074652;28;19921;-80
2021/10/09 05:10:47;;;;;;;;;;;;;;;;;;5074759;28;19942;-81
2021/10/09 05:13:13;;;;;;;;;;;;;;;;;;5074671;28;19962;-80
2021/10/09 05:15:42;;;;;;;;;;;;;;;;;;5074237;28;19917;-80
2021/10/09 05:18:08;;;;;;;;;;;;;;;;;;5074385;28;19916;-80
2021/10/09 05:20:33;;;;;;;;;;;;;;;;;;5056599;28;20364;-80
2021/10/09 05:22:59;;;;;;;;;;;;;;;;;;5074834;28;20498;-81
2021/10/09 05:25:24;;;;;;;;;;;;;;;;;;5074111;28;19924;-81
2021/10/09 05:27:58;;;;;;;;;;;;;;;;;;5074437;28;19921;-81
2021/10/09 05:30:24;;;;;;;;;;;;;;;;;;5074343;28;19923;-81
2021/10/09 05:33:10;;;;;;;;;;;;;;;;;;5074502;28;19956;-81
2021/10/09 05:35:35;;;;;;;;;;;;;;;;;;5073822;28;19938;-81
2021/10/09 05:38:07;;;;;;;;;;;;;;;;;;5071841;28;19920;-81
2021/10/09 05:40:32;;;;;;;;;;;;;;;;;;5069257;28;20379;-86
2021/10/09 05:42:58;;;;;;;;;;;;;;;;;;5076156;28;19917;-81
2021/10/09 05:45:23;;;;;;;;;;;;;;;;;;5079396;28;19919;-81
2021/10/09 05:47:50;;;;;;;;;;;;;;;;;;5074969;28;19946;-80
2021/10/09 05:50:17;;;;;;;;;;;;;;;;;;5075020;28;20050;-80
2021/10/09 05:52:50;;;;;;;;;;;;;;;;;;5071640;28;19928;-81
2021/10/09 05:55:20;;;;;;;;;;;;;;;;;;5071044;28;19927;-81
2021/10/09 07:00:02;;;;;;;;;;;;;;;;;;5073401;28;20030;-81
2021/10/09 07:02:28;;;;;;;;;;;;;;;;;;5073486;28;19947;-81
2021/10/09 07:04:53;;;;;;;;;;;;;;;;;;5073011;28;19916;-80
2021/10/09 07:07:20;;;;;;;;;;;;;;;;;;5073522;28;19916;-81
2021/10/09 07:09:45;;;;;;;;;;;;;;;;;;5073278;28;20261;-83
2021/10/09 07:12:11;;;;;;;;;;;;;;;;;;5073317;28;19970;-82
2021/10/09 07:14:36;;;;;;;;;;;;;;;;;;5073773;28;20265;-81
2021/10/09 07:17:02;;;;;;;;;;;;;;;;;;5072963;28;20019;-81
2021/10/09 07:19:27;;;;;;;;;;;;;;;;;;5073419;28;19916;-81
2021/10/09 07:21:53;;;;;;;;;;;;;;;;;;5072235;28;20388;-83
2021/10/09 07:24:19;;;;;;;;;;;;;;;;;;5055046;28;19917;-81
2021/10/09 07:26:45;;;;;;;;;;;;;;;;;;5073246;28;20441;-82
2021/10/09 07:29:10;;;;;;;;;;;;;;;;;;5073498;28;19917;-82
2021/10/09 07:31:36;;;;;;;;;;;;;;;;;;5073324;28;19943;-82
2021/10/09 07:34:01;;;;;;;;;;;;;;;;;;5073069;28;19920;-82
2021/10/09 07:36:26;;;;;;;;;;;;;;;;;;5076053;28;19955;-84
2021/10/09 07:38:54;;;;;;;;;;;;;;;;;;5076418;28;19917;-83
2021/10/09 07:41:20;;;;;;;;;;;;;;;;;;5075694;28;20257;-84
2021/10/09 07:43:45;;;;;;;;;;;;;;;;;;5076517;28;19923;-82
2021/10/09 07:46:11;;;;;;;;;;;;;;;;;;5076070;28;19959;-83
2021/10/09 07:48:36;;;;;;;;;;;;;;;;;;5076732;28;19923;-81
2021/10/09 07:51:04;;;;;;;;;;;;;;;;;;5076277;28;20011;-83
2021/10/09 07:53:30;;;;;;;;;;;;;;;;;;5074513;28;19963;-83
2021/10/09 07:55:55;;;;;;;;;;;;;;;;;;5057961;28;19920;-81
2021/10/09 07:58:20;;;;;;;;;;;;;;;;;;5075717;28;20364;-83
2021/10/09 08:00:46;;;;;;;;;;;;;;;;;;5074883;28;19960;-81
2021/10/09 08:03:11;;;;;;;;;;;;;;;;;;5074659;28;20372;-81
2021/10/09 08:05:37;;;;;;;;;;;;;;;;;;5074340;28;19917;-80
2021/10/09 08:08:03;;;;;;;;;;;;;;;;;;5075488;28;19917;-80
2021/10/09 08:10:28;;;;;;;;;;;;;;;;;;5057836;28;20368;-80
2021/10/09 08:12:54;;;;;;;;;;;;;;;;;;5075669;28;19916;-80
2021/10/09 08:15:19;;;;;;;;;;;;;;;;;;5075769;28;20372;-80
2021/10/09 08:17:44;;;;;;;;;;;;;;;;;;5075456;28;19980;-80
2021/10/09 08:20:11;;;;;;;;;;;;;;;;;;5057711;28;19917;-80
2021/10/09 08:22:40;;;;;;;;;;;;;;;;;;5075795;28;19995;-81
2021/10/09 08:28:02;;;;;;;;;;;;;;;;;;5075693;28;19924;-80
2021/10/09 08:35:27;;;;;;;;;;;;;;;;;;5075831;28;19923;-80
2021/10/09 08:38:51;;;;;;;;;;;;;;;;;;5075548;28;20368;-80
2021/10/09 08:41:17;;;;;;;;;;;;;;;;;;5074885;28;19924;-81
2021/10/09 08:43:43;;;;;;;;;;;;;;;;;;5074902;28;19921;-80
2021/10/09 08:46:08;;;;;;;;;;;;;;;;;;5074437;28;19920;-81
2021/10/09 08:48:40;;;;;;;;;;;;;;;;;;5057266;28;20297;-81
2021/10/09 08:51:06;;;;;;;;;;;;;;;;;;5057313;28;20395;-80
2021/10/09 08:53:38;;;;;;;;;;;;;;;;;;5075081;28;20007;-80
2021/10/09 08:56:04;;;;;;;;;;;;;;;;;;5074872;28;19916;-80
2021/10/09 08:58:32;;;;;;;;;;;;;;;;;;5074484;28;19924;-80
2021/10/09 09:01:08;;;;;;;;;;;;;;;;;;5074992;28;19917;-80
2021/10/09 09:04:08;;;;;;;;;;;;;;;;;;5075061;28;20325;-80
2021/10/09 09:26:28;;;;;;;;;;;;;;;;;;5074465;28;20040;-80
2021/10/09 09:32:14;;;;;;;;;;;;;;;;;;5074435;28;19923;-81
2021/10/09 09:38:52;;;;;;;;;;;;;;;;;;5074325;28;19940;-80
2021/10/09 09:40:33;;;;;;;;;;;;;;;;;;5073841;28;20369;-80
2021/10/09 09:42:58;;;;;;;;;;;;;;;;;;5074296;28;19955;-80
2021/10/09 09:45:26;;;;;;;;;;;;;;;;;;5073849;28;19997;-81
2021/10/09 09:47:56;;;;;;;;;;;;;;;;;;5073860;28;19941;-81
2021/10/09 09:50:22;;;;;;;;;;;;;;;;;;5073672;28;19916;-82
2021/10/09 09:52:48;;;;;;;;;;;;;;;;;;5073996;28;19916;-81
2021/10/09 09:55:15;;;;;;;;;;;;;;;;;;5074132;28;19924;-80
2021/10/09 09:57:41;;;;;;;;;;;;;;;;;;5054684;28;19924;-80
2021/10/09 10:00:10;;;;;;;;;;;;;;;;;;5076188;28;19917;-80
2021/10/09 10:02:44;;;;;;;;;;;;;;;;;;5081154;28;19916;-80
2021/10/09 10:05:12;;;;;;;;;;;;;;;;;;5076480;28;19916;-80
2021/10/09 10:07:37;;;;;;;;;;;;;;;;;;5074158;28;20008;-79
2021/10/09 10:10:03;;;;;;;;;;;;;;;;;;5074451;28;20344;-80
2021/10/09 10:12:29;;;;;;;;;;;;;;;;;;5074084;28;19920;-80
2021/10/09 10:14:55;;;;;;;;;;;;;;;;;;5074082;28;19916;-80
2021/10/09 10:17:36;;;;;;;;;;;;;;;;;;5073505;28;20372;-79
2021/10/09 10:20:02;;;;;;;;;;;;;;;;;;5073746;28;20316;-79
2021/10/09 10:22:30;;;;;;;;;;;;;;;;;;5055716;28;19921;-80
2021/10/09 10:24:56;;;;;;;;;;;;;;;;;;5073841;28;20376;-80
2021/10/09 10:27:35;;;;;;;;;;;;;;;;;;5073325;28;19920;-80
2021/10/09 10:30:16;;;;;;;;;;;;;;;;;;5073951;28;19917;-80
2021/10/09 10:32:53;;;;;;;;;;;;;;;;;;5073704;28;20308;-81
2021/10/09 10:35:30;;;;;;;;;;;;;;;;;;5074001;28;19912;-80
2021/10/09 10:38:06;;;;;;;;;;;;;;;;;;5073173;28;20303;-80
2021/10/09 10:40:44;;;;;;;;;;;;;;;;;;5073555;28;19916;-80
2021/10/09 10:43:28;;;;;;;;;;;;;;;;;;5073534;28;19982;-79
2021/10/09 10:45:54;;;;;;;;;;;;;;;;;;5073198;28;19916;-80
2021/10/09 10:48:38;;;;;;;;;;;;;;;;;;5073255;28;19923;-81
2021/10/09 10:51:11;;;;;;;;;;;;;;;;;;5055436;28;19955;-80
2021/10/09 10:54:09;;;;;;;;;;;;;;;;;;5073484;28;19917;-80
2021/10/09 10:56:36;;;;;;;;;;;;;;;;;;5068211;28;19924;-80
2021/10/09 10:59:20;;;;;;;;;;;;;;;;;;5073354;28;20327;-80
2021/10/09 11:01:45;;;;;;;;;;;;;;;;;;5055448;28;19962;-80
2021/10/09 11:04:11;;;;;;;;;;;;;;;;;;5073240;28;19916;-80
2021/10/09 11:06:36;;;;;;;;;;;;;;;;;;5072966;28;19917;-80
2021/10/09 11:09:02;;;;;;;;;;;;;;;;;;5074823;28;19927;-80
2021/10/09 11:11:34;;;;;;;;;;;;;;;;;;5077053;28;19916;-80
2021/10/09 11:13:59;;;;;;;;;;;;;;;;;;5077098;28;20320;-80
2021/10/09 11:16:28;;;;;;;;;;;;;;;;;;5076902;28;19917;-80
2021/10/09 11:18:54;;;;;;;;;;;;;;;;;;5076315;28;20445;-80
2021/10/09 11:21:20;;;;;;;;;;;;;;;;;;5076955;28;19917;-80
2021/10/09 11:23:49;;;;;;;;;;;;;;;;;;5076927;28;19982;-80
2021/10/09 11:26:14;;;;;;;;;;;;;;;;;;5076383;28;19916;-81
2021/10/09 11:28:41;;;;;;;;;;;;;;;;;;5076663;28;20387;-80
2021/10/09 11:31:06;;;;;;;;;;;;;;;;;;5076699;28;20369;-80
2021/10/09 11:33:32;;;;;;;;;;;;;;;;;;5076680;28;19922;-80
2021/10/09 11:36:00;;;;;;;;;;;;;;;;;;5076640;28;19923;-80
2021/10/09 11:38:29;;;;;;;;;;;;;;;;;;5076025;28;19923;-81
2021/10/09 11:43:32;;;;;;;;;;;;;;;;;;5077161;28;19920;-80
2021/10/09 11:56:43;;;;;;;;;;;;;;;;;;5076120;28;19920;-81
2021/10/09 11:59:10;;;;;;;;;;;;;;;;;;5075637;28;19917;-81
2021/10/09 12:01:41;;;;;;;;;;;;;;;;;;5076313;28;20380;-81
2021/10/09 12:04:13;;;;;;;;;;;;;;;;;;5076291;28;19920;-80
2021/10/09 12:06:43;;;;;;;;;;;;;;;;;;5075730;28;20395;-81
2021/10/09 12:09:10;;;;;;;;;;;;;;;;;;5075877;28;19917;-83
2021/10/09 12:11:35;;;;;;;;;;;;;;;;;;5075942;28;19917;-81
2021/10/09 12:14:05;;;;;;;;;;;;;;;;;;5075969;28;19917;-80
2021/10/09 12:16:35;;;;;;;;;;;;;;;;;;5075746;28;19965;-81
2021/10/09 12:19:02;;;;;;;;;;;;;;;;;;5075015;28;19978;-81
2021/10/09 12:21:35;;;;;;;;;;;;;;;;;;5075056;28;19943;-81
2021/10/09 12:24:12;;;;;;;;;;;;;;;;;;5075748;28;19917;-81
2021/10/09 12:26:37;;;;;;;;;;;;;;;;;;5075342;28;20376;-81
2021/10/09 12:29:17;;;;;;;;;;;;;;;;;;5075433;28;19917;-81
2021/10/09 12:31:43;;;;;;;;;;;;;;;;;;5075686;28;19920;-81
2021/10/09 12:34:27;;;;;;;;;;;;;;;;;;5075515;28;19924;-81
2021/10/09 12:37:11;;;;;;;;;;;;;;;;;;5075570;28;19928;-80
2021/10/09 12:39:37;;;;;;;;;;;;;;;;;;5075373;28;19916;-81
2021/10/09 12:42:02;;;;;;;;;;;;;;;;;;5075546;28;19917;-80
2021/10/09 12:44:28;;;;;;;;;;;;;;;;;;5075276;28;19927;-80
2021/10/09 12:46:53;;;;;;;;;;;;;;;;;;5074785;28;19917;-80
2021/10/09 12:49:19;;;;;;;;;;;;;;;;;;5075354;28;19924;-81
2021/10/09 12:51:45;;;;;;;;;;;;;;;;;;5075077;28;19924;-80
2021/10/09 12:54:15;;;;;;;;;;;;;;;;;;5075192;28;19924;-82
2021/10/09 12:56:41;;;;;;;;;;;;;;;;;;5056978;28;19920;-80
2021/10/09 12:59:07;;;;;;;;;;;;;;;;;;5074530;28;19916;-80
2021/10/09 13:01:32;;;;;;;;;;;;;;;;;;5075139;28;19923;-80
2021/10/09 13:03:58;;;;;;;;;;;;;;;;;;5075080;28;19960;-81
2021/10/09 13:06:23;;;;;;;;;;;;;;;;;;5074599;28;19917;-81
2021/10/09 13:08:49;;;;;;;;;;;;;;;;;;5074536;28;19978;-81
2021/10/09 13:11:17;;;;;;;;;;;;;;;;;;5074838;28;20463;-81
2021/10/09 13:13:45;;;;;;;;;;;;;;;;;;5074759;28;19970;-81
2021/10/09 13:16:11;;;;;;;;;;;;;;;;;;5074641;28;19931;-81
2021/10/09 13:18:36;;;;;;;;;;;;;;;;;;5074263;28;19916;-81
2021/10/09 13:21:01;;;;;;;;;;;;;;;;;;5074536;28;19920;-81
2021/10/09 13:23:31;;;;;;;;;;;;;;;;;;5074596;28;19916;-81
2021/10/09 13:25:57;;;;;;;;;;;;;;;;;;5074383;28;19958;-82
2021/10/09 13:28:23;;;;;;;;;;;;;;;;;;5074099;28;19921;-82
2021/10/09 13:30:50;;;;;;;;;;;;;;;;;;5074580;28;19920;-81
2021/10/09 13:33:16;;;;;;;;;;;;;;;;;;5074409;28;19923;-82
2021/10/09 13:35:41;;;;;;;;;;;;;;;;;;5074360;28;19920;-81
2021/10/09 13:38:09;;;;;;;;;;;;;;;;;;5055827;28;19917;-81
2021/10/09 13:40:34;;;;;;;;;;;;;;;;;;5074609;28;19920;-82
2021/10/09 13:43:00;;;;;;;;;;;;;;;;;;5074276;28;20407;-82
2021/10/09 13:45:25;;;;;;;;;;;;;;;;;;5074317;28;19917;-81
2021/10/09 13:47:50;;;;;;;;;;;;;;;;;;5073870;28;19962;-82
2021/10/09 13:50:17;;;;;;;;;;;;;;;;;;5073865;28;19916;-81
2021/10/09 13:52:42;;;;;;;;;;;;;;;;;;5074096;28;19927;-81
2021/10/09 13:55:08;;;;;;;;;;;;;;;;;;5074507;28;19917;-81
2021/10/09 13:57:33;;;;;;;;;;;;;;;;;;5073630;28;19927;-82
2021/10/09 13:59:59;;;;;;;;;;;;;;;;;;5073861;28;19924;-82
2021/10/09 14:02:24;;;;;;;;;;;;;;;;;;5056145;28;19924;-82
2021/10/09 14:04:50;;;;;;;;;;;;;;;;;;5074052;28;19939;-81
2021/10/09 14:07:16;;;;;;;;;;;;;;;;;;5055723;28;20017;-82
2021/10/09 14:09:41;;;;;;;;;;;;;;;;;;5073848;28;20427;-83
2021/10/09 14:12:07;;;;;;;;;;;;;;;;;;5073876;28;19917;-81
2021/10/09 14:14:34;;;;;;;;;;;;;;;;;;5055725;28;20221;-83
2021/10/09 14:17:00;;;;;;;;;;;;;;;;;;5073910;28;20002;-81
2021/10/09 14:19:25;;;;;;;;;;;;;;;;;;5073468;28;20019;-82
2021/10/09 14:21:51;;;;;;;;;;;;;;;;;;5080609;28;19956;-81
2021/10/09 14:24:17;;;;;;;;;;;;;;;;;;5079173;28;19955;-81
2021/10/09 14:26:42;;;;;;;;;;;;;;;;;;5075675;28;19920;-82
2021/10/09 14:29:08;;;;;;;;;;;;;;;;;;5074976;28;20012;-81
2021/10/09 14:31:33;;;;;;;;;;;;;;;;;;5074691;28;19923;-82
2021/10/09 14:33:59;;;;;;;;;;;;;;;;;;5074389;28;19916;-81
2021/10/09 14:36:24;;;;;;;;;;;;;;;;;;5074322;28;19924;-82
2021/10/09 14:38:49;;;;;;;;;;;;;;;;;;5055788;28;20011;-82
2021/10/09 14:41:15;;;;;;;;;;;;;;;;;;5073789;28;19917;-81
2021/10/09 14:43:41;;;;;;;;;;;;;;;;;;5074909;28;20006;-84
2021/10/09 14:47:05;;;;;;;;;;;;;;;;;;5077823;28;20280;-82
2021/10/09 14:49:03;;;;;;;;;;;;;;;;;;5074236;28;19916;-82
2021/10/09 15:18:36;;;;;;;;;;;;;;;;;;5076223;28;19916;-80
2021/10/09 15:21:01;;;;;;;;;;;;;;;;;;5076677;28;19927;-80
2021/10/09 15:23:28;;;;;;;;;;;;;;;;;;5058959;28;19921;-80
2021/10/09 15:25:54;;;;;;;;;;;;;;;;;;5076795;28;19939;-80
2021/10/09 15:28:20;;;;;;;;;;;;;;;;;;5076288;28;20372;-81
2021/10/09 15:30:45;;;;;;;;;;;;;;;;;;5076607;28;19916;-80
2021/10/09 15:33:11;;;;;;;;;;;;;;;;;;5076780;28;19916;-80
2021/10/09 15:35:36;;;;;;;;;;;;;;;;;;5076799;28;20368;-80
2021/10/09 15:38:02;;;;;;;;;;;;;;;;;;5077050;28;19920;-81
2021/10/09 15:40:28;;;;;;;;;;;;;;;;;;5059312;28;20031;-81
2021/10/09 15:42:53;;;;;;;;;;;;;;;;;;5076709;28;19917;-81
2021/10/09 15:45:19;;;;;;;;;;;;;;;;;;5076760;28;20261;-81
2021/10/09 15:47:46;;;;;;;;;;;;;;;;;;5076229;28;19916;-78
2021/10/09 15:50:11;;;;;;;;;;;;;;;;;;5076431;28;20345;-80
2021/10/09 15:52:37;;;;;;;;;;;;;;;;;;5076403;28;20066;-80
2021/10/09 15:55:02;;;;;;;;;;;;;;;;;;5074984;28;19943;-79
2021/10/09 15:57:28;;;;;;;;;;;;;;;;;;5076119;28;19974;-79
2021/10/09 15:59:53;;;;;;;;;;;;;;;;;;5058373;28;19924;-79
2021/10/09 16:02:18;;;;;;;;;;;;;;;;;;5058234;28;19917;-80
2021/10/09 16:04:44;;;;;;;;;;;;;;;;;;5076319;28;19916;-78
2021/10/09 16:07:09;;;;;;;;;;;;;;;;;;5076035;28;19923;-79
2021/10/09 16:09:35;;;;;;;;;;;;;;;;;;5076439;28;20394;-79
2021/10/09 16:12:00;;;;;;;;;;;;;;;;;;5076527;28;20413;-78
2021/10/09 16:14:26;;;;;;;;;;;;;;;;;;5058372;28;19916;-82
2021/10/09 16:16:51;;;;;;;;;;;;;;;;;;5076413;28;19920;-80
2021/10/09 16:19:17;;;;;;;;;;;;;;;;;;5057825;28;19917;-81
2021/10/09 16:21:43;;;;;;;;;;;;;;;;;;5076011;28;19923;-81
2021/10/09 16:24:09;;;;;;;;;;;;;;;;;;5057750;28;19924;-80
2021/10/09 16:26:34;;;;;;;;;;;;;;;;;;5075554;28;19916;-80
2021/10/09 16:29:00;;;;;;;;;;;;;;;;;;5075341;28;19916;-81
2021/10/09 16:31:25;;;;;;;;;;;;;;;;;;5075636;28;20001;-83
2021/10/09 16:33:52;;;;;;;;;;;;;;;;;;5075641;28;20314;-86
2021/10/09 16:36:18;;;;;;;;;;;;;;;;;;5057549;28;19916;-81
2021/10/09 16:38:43;;;;;;;;;;;;;;;;;;5069292;28;19920;-83
2021/10/09 16:41:09;;;;;;;;;;;;;;;;;;5059613;28;19923;-85
2021/10/09 16:43:34;;;;;;;;;;;;;;;;;;5050374;28;19924;-79
2021/10/09 16:45:59;;;;;;;;;;;;;;;;;;5055438;28;19959;-81
2021/10/09 16:48:25;;;;;;;;;;;;;;;;;;5054962;28;20390;-79
2021/10/09 16:50:50;;;;;;;;;;;;;;;;;;5055329;28;19917;-81
2021/10/09 16:53:16;;;;;;;;;;;;;;;;;;5055271;28;19935;-79
2021/10/09 16:55:42;;;;;;;;;;;;;;;;;;5055503;28;19932;-79
2021/10/09 16:58:07;;;;;;;;;;;;;;;;;;5055154;28;19925;-81
2021/10/09 17:00:33;;;;;;;;;;;;;;;;;;5055168;28;19917;-78
2021/10/09 17:02:58;;;;;;;;;;;;;;;;;;5055041;28;19970;-79
2021/10/09 17:05:25;;;;;;;;;;;;;;;;;;5063921;28;19935;-80
2021/10/09 17:07:50;;;;;;;;;;;;;;;;;;5074466;28;20399;-77
2021/10/09 17:10:15;;;;;;;;;;;;;;;;;;5074814;28;19917;-77
2021/10/09 17:12:41;;;;;;;;;;;;;;;;;;5074859;28;20299;-78
2021/10/09 17:15:07;;;;;;;;;;;;;;;;;;5074778;28;19921;-77
2021/10/09 17:17:32;;;;;;;;;;;;;;;;;;5075576;28;19925;-80
2021/10/09 17:19:58;;;;;;;;;;;;;;;;;;5075264;28;19931;-79
2021/10/09 17:22:23;;;;;;;;;;;;;;;;;;5074474;28;19917;-79
2021/10/09 17:24:48;;;;;;;;;;;;;;;;;;5074559;28;20368;-77
2021/10/09 17:27:14;;;;;;;;;;;;;;;;;;5074344;28;19940;-78
2021/10/09 17:29:39;;;;;;;;;;;;;;;;;;5074313;28;19916;-78
2021/10/09 17:32:05;;;;;;;;;;;;;;;;;;5074363;28;19927;-77
2021/10/09 17:34:32;;;;;;;;;;;;;;;;;;5056396;28;19971;-78
2021/10/09 17:36:58;;;;;;;;;;;;;;;;;;5078494;28;19921;-78
2021/10/09 17:39:23;;;;;;;;;;;;;;;;;;5074397;28;19916;-78
2021/10/09 17:41:49;;;;;;;;;;;;;;;;;;5074381;28;20310;-77
2021/10/09 17:44:15;;;;;;;;;;;;;;;;;;5074148;28;19913;-78
2021/10/09 17:46:40;;;;;;;;;;;;;;;;;;5056418;28;19923;-78
2021/10/09 17:49:06;;;;;;;;;;;;;;;;;;5067217;28;19932;-78
2021/10/09 17:51:37;;;;;;;;;;;;;;;;;;5074131;28;20038;-78
2021/10/09 17:54:02;;;;;;;;;;;;;;;;;;5074290;28;20011;-79
2021/10/09 17:56:29;;;;;;;;;;;;;;;;;;5073676;28;19948;-78
2021/10/09 17:58:55;;;;;;;;;;;;;;;;;;5056367;28;20003;-79
2021/10/09 18:01:20;;;;;;;;;;;;;;;;;;5056059;28;20011;-80
2021/10/09 18:03:46;;;;;;;;;;;;;;;;;;5074063;28;19917;-79
2021/10/09 18:06:12;;;;;;;;;;;;;;;;;;5073957;28;20269;-79
2021/10/09 18:11:40;;;;;;;;;;;;;;;;;;5074101;28;19923;-79
2021/10/09 18:14:06;;;;;;;;;;;;;;;;;;5073919;28;20283;-79
2021/10/09 18:16:32;;;;;;;;;;;;;;;;;;5073822;28;19927;-78
2021/10/09 18:18:57;;;;;;;;;;;;;;;;;;5073192;28;19917;-79
2021/10/09 18:21:22;;;;;;;;;;;;;;;;;;5073765;28;19916;-78
2021/10/09 18:23:48;;;;;;;;;;;;;;;;;;5073835;28;20334;-78
2021/10/09 18:26:13;;;;;;;;;;;;;;;;;;5074377;28;19920;-78
2021/10/09 18:28:39;;;;;;;;;;;;;;;;;;5073616;28;19923;-78
2021/10/09 18:31:04;;;;;;;;;;;;;;;;;;5073766;28;20061;-78
2021/10/09 18:33:30;;;;;;;;;;;;;;;;;;5074026;28;20065;-78
2021/10/09 18:35:56;;;;;;;;;;;;;;;;;;5055671;28;20241;-78
2021/10/09 18:38:22;;;;;;;;;;;;;;;;;;5055369;28;19927;-78
2021/10/09 18:40:47;;;;;;;;;;;;;;;;;;5073562;28;19924;-78
2021/10/09 18:43:13;;;;;;;;;;;;;;;;;;5073751;28;19916;-78
2021/10/09 18:45:38;;;;;;;;;;;;;;;;;;5073500;28;19917;-78
2021/10/09 18:48:04;;;;;;;;;;;;;;;;;;5073761;28;19917;-79
2021/10/09 18:50:29;;;;;;;;;;;;;;;;;;5074294;28;20376;-79
2021/10/09 18:52:56;;;;;;;;;;;;;;;;;;5077420;28;19917;-79
2021/10/09 18:55:21;;;;;;;;;;;;;;;;;;5077791;28;20433;-79
2021/10/09 18:57:46;;;;;;;;;;;;;;;;;;5056588;28;19920;-78
2021/10/09 19:00:12;;;;;;;;;;;;;;;;;;5074150;28;20010;-79
2021/10/09 19:02:38;;;;;;;;;;;;;;;;;;5074479;28;19969;-79
2021/10/09 19:05:04;;;;;;;;;;;;;;;;;;5074178;28;19917;-78
2021/10/09 19:07:29;;;;;;;;;;;;;;;;;;5073970;28;19956;-79
2021/10/09 19:09:54;;;;;;;;;;;;;;;;;;5073490;28;19924;-79
2021/10/09 19:12:20;;;;;;;;;;;;;;;;;;5074079;28;19923;-79
2021/10/09 19:14:46;;;;;;;;;;;;;;;;;;5074169;28;19919;-79
2021/10/09 19:17:11;;;;;;;;;;;;;;;;;;5074058;28;19970;-79
2021/10/09 19:19:36;;;;;;;;;;;;;;;;;;5073738;28;19917;-77